Time;durP1;ratioP1;P1;durP2;ratioP2;P2;SDS_P1;SDS_P2;PMS_P1;PMS_P2;Temp;Humidity;BMP_temperature;BMP_pressure;BME280_temperature;BME280_humidity;BME280_pressure;Samples;Min_cycle;Max_cycle;Signal;HPM_P1;HPM_P2
2022/08/29 00:01:20;;;;;;;18.90;15.27;;;;;;;16.79;100.00;101862.34;5014501;28;20495;-56
2022/08/29 00:03:49;;;;;;;15.30;13.80;;;;;;;16.77;100.00;101869.81;5014268;28;20483;-54
2022/08/29 00:06:17;;;;;;;16.67;15.10;;;;;;;16.75;100.00;101867.34;5013893;28;20511;-54
2022/08/29 00:08:46;;;;;;;20.23;14.33;;;;;;;16.74;100.00;101864.84;5014663;28;20440;-55
2022/08/29 00:11:14;;;;;;;16.57;14.83;;;;;;;16.74;100.00;101867.56;5014455;28;20456;-55
2022/08/29 00:13:42;;;;;;;16.10;14.73;;;;;;;16.71;100.00;101866.09;5014127;28;20429;-53
2022/08/29 00:16:10;;;;;;;18.57;15.77;;;;;;;16.68;100.00;101858.44;5013710;28;20987;-55
2022/08/29 00:18:38;;;;;;;17.20;15.30;;;;;;;16.66;100.00;101867.78;5014425;28;20476;-54
2022/08/29 00:21:06;;;;;;;17.33;15.73;;;;;;;16.66;100.00;101862.38;5014253;28;20818;-53
2022/08/29 00:23:34;;;;;;;18.77;16.77;;;;;;;16.62;100.00;101867.34;5013781;28;20943;-51
2022/08/29 00:26:03;;;;;;;16.60;14.97;;;;;;;16.63;100.00;101865.50;5013661;28;20484;-54
2022/08/29 00:28:31;;;;;;;17.17;15.57;;;;;;;16.58;100.00;101863.41;5013957;28;20443;-55
2022/08/29 00:30:58;;;;;;;17.90;15.37;;;;;;;16.53;100.00;101871.28;5013741;28;20471;-52
2022/08/29 00:33:26;;;;;;;19.50;16.50;;;;;;;16.49;100.00;101868.16;5013935;28;20440;-55
2022/08/29 00:35:54;;;;;;;24.97;16.70;;;;;;;16.47;100.00;101872.09;5013513;28;20476;-55
2022/08/29 00:38:23;;;;;;;18.13;16.20;;;;;;;16.45;100.00;101880.41;5013888;28;20464;-53
2022/08/29 00:40:56;;;;;;;16.20;14.57;;;;;;;16.47;100.00;101874.78;5013858;28;20531;-52
2022/08/29 00:43:29;;;;;;;16.00;14.47;;;;;;;16.47;100.00;101882.88;5013485;28;20965;-55
2022/08/29 00:46:05;;;;;;;15.87;14.47;;;;;;;16.47;100.00;101872.94;5013333;28;20471;-56
2022/08/29 00:48:35;;;;;;;15.67;14.27;;;;;;;16.44;100.00;101872.50;5013977;28;20523;-53
2022/08/29 00:51:07;;;;;;;16.47;14.73;;;;;;;16.42;100.00;101869.22;5013526;28;20465;-53
2022/08/29 00:53:39;;;;;;;15.67;14.20;;;;;;;16.33;100.00;101865.06;4993743;28;20939;-55
2022/08/29 00:56:09;;;;;;;17.23;14.90;;;;;;;16.33;100.00;101868.59;4993738;28;20462;-51
2022/08/29 00:58:45;;;;;;;16.97;13.27;;;;;;;16.28;100.00;101860.28;4993057;28;20453;-56
2022/08/29 01:01:13;;;;;;;15.97;14.37;;;;;;;16.25;100.00;101859.88;4994206;28;20466;-53
2022/08/29 01:03:41;;;;;;;15.77;14.00;;;;;;;16.28;100.00;101860.28;4993719;28;20492;-54
2022/08/29 01:06:12;;;;;;;15.80;14.20;;;;;;;16.27;100.00;101865.91;4993158;28;20465;-53
2022/08/29 01:08:40;;;;;;;15.57;14.17;;;;;;;16.22;100.00;101863.00;4993726;28;21090;-52
2022/08/29 01:14:00;;;;;;;14.33;13.20;;;;;;;16.17;100.00;101874.38;4993493;28;20836;-55
2022/08/29 01:16:28;;;;;;;14.97;13.67;;;;;;;16.17;100.00;101873.53;4993149;28;20461;-54
2022/08/29 01:19:00;;;;;;;17.57;15.77;;;;;;;16.17;100.00;101878.91;4993670;28;20434;-54
2022/08/29 01:21:37;;;;;;;15.40;14.10;;;;;;;16.17;100.00;101882.44;4993843;28;20458;-55
2022/08/29 01:24:12;;;;;;;15.07;13.67;;;;;;;16.11;100.00;101879.75;4993479;28;20433;-54
2022/08/29 01:26:43;;;;;;;15.17;13.97;;;;;;;16.12;100.00;101884.09;4973896;28;20984;-55
2022/08/29 01:29:11;;;;;;;15.73;14.13;;;;;;;16.09;100.00;101887.19;4973843;28;20442;-54
2022/08/29 01:31:41;;;;;;;15.17;13.63;;;;;;;16.08;100.00;101883.69;4973811;28;20468;-55
2022/08/29 01:34:26;;;;;;;16.13;14.80;;;;;;;16.11;100.00;101888.66;4974416;28;20940;-56
2022/08/29 01:36:56;;;;;;;16.87;15.50;;;;;;;16.12;100.00;101884.09;4993234;28;20434;-54
2022/08/29 01:39:25;;;;;;;14.53;13.43;;;;;;;16.11;100.00;101888.66;4993314;28;20434;-54
2022/08/29 01:41:56;;;;;;;15.50;14.03;;;;;;;16.12;100.00;101898.38;4993284;28;20454;-55
2022/08/29 01:44:25;;;;;;;15.13;13.73;;;;;;;16.11;100.00;101896.72;4992517;28;20464;-53
2022/08/29 01:46:55;;;;;;;13.97;12.43;;;;;;;16.09;100.00;101904.19;4993688;28;20470;-51
2022/08/29 01:49:30;;;;;;;15.10;13.67;;;;;;;16.09;100.00;101896.09;4993131;28;20426;-52
2022/08/29 01:51:57;;;;;;;13.67;12.60;;;;;;;16.03;100.00;101895.06;4992966;28;20445;-52
2022/08/29 01:54:25;;;;;;;14.00;12.60;;;;;;;16.03;100.00;101897.75;4992363;28;20438;-55
2022/08/29 01:56:55;;;;;;;13.83;12.73;;;;;;;16.05;100.00;101895.69;4993240;28;20456;-52
2022/08/29 01:59:26;;;;;;;13.60;12.43;;;;;;;16.00;100.00;101895.47;4992955;28;20425;-53
2022/08/29 02:01:58;;;;;;;12.57;11.37;;;;;;;15.98;100.00;101892.13;4992979;28;20458;-55
2022/08/29 02:04:26;;;;;;;13.77;12.37;;;;;;;15.98;100.00;101894.00;4992187;28;20496;-55
2022/08/29 02:06:54;;;;;;;13.20;12.00;;;;;;;15.87;100.00;101892.75;4992718;28;20469;-55
2022/08/29 02:09:22;;;;;;;14.33;11.70;;;;;;;15.92;100.00;101894.81;4991843;28;20438;-55
2022/08/29 02:11:53;;;;;;;14.40;12.63;;;;;;;15.88;100.00;101894.41;4992649;28;20454;-52
2022/08/29 02:14:23;;;;;;;15.27;11.30;;;;;;;15.82;100.00;101887.16;4992381;28;20432;-55
2022/08/29 02:16:51;;;;;;;13.50;12.23;;;;;;;15.80;100.00;101886.50;4992582;28;20431;-53
2022/08/29 02:19:18;;;;;;;12.33;11.30;;;;;;;15.79;100.00;101894.81;4992776;28;20461;-55
2022/08/29 02:21:46;;;;;;;12.57;11.57;;;;;;;15.78;100.00;101899.34;4992693;28;20450;-53
2022/08/29 02:24:16;;;;;;;12.33;11.33;;;;;;;15.76;100.00;101901.41;4992394;28;20446;-53
2022/08/29 02:26:53;;;;;;;12.50;11.37;;;;;;;15.72;100.00;101905.53;4992493;28;20452;-55
2022/08/29 02:29:23;;;;;;;13.40;12.20;;;;;;;15.67;100.00;101905.31;4992686;28;20521;-50
2022/08/29 02:31:50;;;;;;;12.40;11.30;;;;;;;15.66;100.00;101895.59;4992184;28;20472;-53
2022/08/29 02:34:18;;;;;;;12.37;10.77;;;;;;;15.59;100.00;101905.47;4992030;28;20788;-55
2022/08/29 02:36:46;;;;;;;11.40;10.40;;;;;;;15.60;100.00;101898.25;4992609;28;20777;-53
2022/08/29 02:39:17;;;;;;;10.77;9.77;;;;;;;15.54;100.00;101902.56;4992387;28;20434;-52
2022/08/29 02:41:45;;;;;;;11.27;10.20;;;;;;;15.53;100.00;101902.78;4992547;28;20814;-53
2022/08/29 02:44:13;;;;;;;11.30;10.40;;;;;;;15.56;100.00;101911.25;4992226;28;20433;-52
2022/08/29 02:46:42;;;;;;;10.20;9.30;;;;;;;15.54;100.00;101912.47;4992280;28;20452;-51
2022/08/29 02:49:09;;;;;;;11.23;10.40;;;;;;;15.53;100.00;101911.66;4992409;28;20513;-55
2022/08/29 02:51:37;;;;;;;10.40;9.30;;;;;;;15.52;100.00;101914.56;4996011;28;20453;-55
2022/08/29 02:54:05;;;;;;;11.10;8.87;;;;;;;15.49;100.00;101913.09;5003754;28;20440;-53
2022/08/29 02:56:32;;;;;;;9.83;9.03;;;;;;;15.48;100.00;101911.44;5011057;28;21183;-54
2022/08/29 02:59:00;;;;;;;9.00;8.20;;;;;;;15.52;100.00;101906.50;5011917;28;20455;-52
2022/08/29 03:01:29;;;;;;;9.90;9.00;;;;;;;15.48;100.00;101906.88;5011579;28;20461;-51
2022/08/29 03:03:59;;;;;;;10.00;9.00;;;;;;;15.46;100.00;101908.94;5011565;28;20461;-50
2022/08/29 03:06:26;;;;;;;10.67;9.77;;;;;;;15.54;100.00;101909.78;5011068;28;20465;-47
2022/08/29 03:08:54;;;;;;;9.27;8.57;;;;;;;15.54;100.00;101907.09;5011572;28;20834;-49
2022/08/29 03:11:22;;;;;;;11.00;9.70;;;;;;;15.55;100.00;101911.47;5011576;28;20818;-53
2022/08/29 03:13:50;;;;;;;9.03;8.23;;;;;;;15.55;100.00;101908.78;5011567;28;20433;-50
2022/08/29 03:16:24;;;;;;;8.27;7.73;;;;;;;15.56;100.00;101908.56;5011136;28;20808;-50
2022/08/29 03:18:52;;;;;;;8.43;7.53;;;;;;;15.55;100.00;101908.78;5011375;28;20838;-47
2022/08/29 03:21:23;;;;;;;8.30;7.60;;;;;;;15.54;100.00;101912.47;5011757;28;20467;-53
2022/08/29 03:23:52;;;;;;;8.50;7.83;;;;;;;15.51;100.00;101913.72;5014725;28;20425;-53
2022/08/29 03:26:20;;;;;;;8.47;7.77;;;;;;;15.49;100.00;101918.47;5014610;28;20461;-49
2022/08/29 03:28:48;;;;;;;9.60;8.40;;;;;;;15.49;100.00;101918.47;5015210;28;20842;-50
2022/08/29 03:31:16;;;;;;;8.00;7.30;;;;;;;15.46;100.00;101917.00;5015004;28;20464;-49
2022/08/29 03:33:43;;;;;;;8.20;7.70;;;;;;;15.46;100.00;101921.53;5014843;28;20484;-54
2022/08/29 03:36:11;;;;;;;8.80;8.10;;;;;;;15.44;100.00;101924.41;5014382;28;20495;-49
2022/08/29 03:38:45;;;;;;;8.37;7.77;;;;;;;15.38;100.00;101922.50;5015172;28;20436;-50
2022/08/29 03:41:19;;;;;;;8.30;7.70;;;;;;;15.31;100.00;101926.22;5015003;28;20463;-53
2022/08/29 03:43:47;;;;;;;8.37;7.77;;;;;;;15.25;100.00;101927.84;5014808;28;20435;-47
2022/08/29 03:46:15;;;;;;;7.80;7.30;;;;;;;15.26;100.00;101931.38;5014362;28;20490;-52
2022/08/29 03:48:42;;;;;;;8.93;8.40;;;;;;;15.25;100.00;101925.16;5014605;28;20559;-55
2022/08/29 03:51:10;;;;;;;8.90;8.10;;;;;;;15.27;100.00;101925.78;5014495;28;20457;-54
2022/08/29 03:53:38;;;;;;;8.53;7.93;;;;;;;15.30;100.00;101938.81;5006227;28;20433;-53
2022/08/29 03:56:09;;;;;;;9.17;8.47;;;;;;;15.31;100.00;101932.44;5014157;28;20464;-50
2022/08/29 03:58:44;;;;;;;8.23;7.70;;;;;;;15.36;100.00;101939.88;5014681;28;20628;-50
2022/08/29 04:01:21;;;;;;;9.30;8.43;;;;;;;15.36;100.00;101939.88;5014262;28;20453;-48
2022/08/29 04:03:48;;;;;;;9.77;8.33;;;;;;;15.39;100.00;101937.63;5014377;28;20440;-49
2022/08/29 04:06:16;;;;;;;9.47;8.50;;;;;;;15.41;100.00;101937.44;5013998;28;20469;-52
2022/08/29 04:08:47;;;;;;;11.87;10.67;;;;;;;15.43;100.00;101946.97;5014468;28;20484;-49
2022/08/29 04:11:18;;;;;;;9.40;8.63;;;;;;;15.43;100.00;101944.28;5014348;28;20601;-48
2022/08/29 04:13:47;;;;;;;10.47;9.37;;;;;;;15.44;100.00;101950.47;5013986;28;20436;-52
2022/08/29 04:16:20;;;;;;;10.33;9.63;;;;;;;15.38;100.00;101962.03;5013734;28;20461;-49
2022/08/29 04:18:48;;;;;;;11.40;10.23;;;;;;;15.38;100.00;101956.66;5014284;28;20429;-54
2022/08/29 04:21:17;;;;;;;12.13;11.03;;;;;;;15.41;100.00;101961.63;5014109;28;20461;-52
2022/08/29 04:23:45;;;;;;;16.10;11.20;;;;;;;15.42;100.00;101957.91;5013971;28;20429;-50
2022/08/29 04:26:18;;;;;;;13.10;12.03;;;;;;;15.43;100.00;101968.47;5013502;28;20472;-50
2022/08/29 04:29:03;;;;;;;13.63;12.30;;;;;;;15.44;100.00;101963.94;5014197;28;20885;-53
2022/08/29 04:31:31;;;;;;;12.50;11.60;;;;;;;15.46;100.00;101967.22;5013875;28;20854;-52
2022/08/29 04:33:59;;;;;;;11.63;10.80;;;;;;;15.50;100.00;101965.84;5013428;28;20468;-49
2022/08/29 04:36:26;;;;;;;9.90;9.20;;;;;;;15.49;100.00;101964.19;5013225;28;20465;-49
2022/08/29 04:38:54;;;;;;;10.80;9.80;;;;;;;15.52;100.00;101962.94;5013678;28;20432;-51
2022/08/29 04:41:24;;;;;;;11.30;10.07;;;;;;;15.54;100.00;101961.72;5013908;28;20820;-49
2022/08/29 04:43:51;;;;;;;9.07;8.57;;;;;;;15.55;100.00;101957.19;5013653;28;20449;-52
2022/08/29 04:46:19;;;;;;;9.73;9.00;;;;;;;15.62;100.00;101961.53;5013201;28;20469;-51
2022/08/29 04:48:51;;;;;;;9.13;8.33;;;;;;;15.62;100.00;101960.72;5013508;28;20477;-51
2022/08/29 04:51:19;;;;;;;9.40;8.70;;;;;;;15.61;100.00;101957.22;5013084;28;20457;-49
2022/08/29 04:53:47;;;;;;;8.50;7.90;;;;;;;15.66;100.00;101959.28;5005407;28;20803;-50
2022/08/29 04:56:14;;;;;;;7.87;7.37;;;;;;;15.69;100.00;101962.41;5013077;28;20811;-49
2022/08/29 04:58:46;;;;;;;8.90;8.17;;;;;;;15.73;100.00;101966.38;5013594;28;20439;-53
2022/08/29 05:01:15;;;;;;;8.00;7.57;;;;;;;15.70;100.00;101964.06;5013476;28;20462;-53
2022/08/29 05:03:43;;;;;;;7.33;6.77;;;;;;;15.76;100.00;101967.81;5013014;28;20432;-52
2022/08/29 05:06:13;;;;;;;8.90;8.17;;;;;;;15.77;100.00;101970.28;5012862;28;20799;-54
2022/08/29 05:08:44;;;;;;;8.10;7.47;;;;;;;15.75;100.00;101966.97;5013651;28;20473;-55
2022/08/29 05:11:15;;;;;;;8.33;7.80;;;;;;;15.77;100.00;101966.81;5013158;28;20452;-52
2022/08/29 05:13:52;;;;;;;7.70;6.90;;;;;;;15.83;100.00;101974.88;5013059;28;20791;-53
2022/08/29 05:16:20;;;;;;;9.53;7.80;;;;;;;15.81;100.00;101974.25;5012551;28;20464;-50
2022/08/29 05:18:48;;;;;;;6.37;5.97;;;;;;;15.81;100.00;101973.41;5013317;28;20496;-52
2022/08/29 05:21:25;;;;;;;6.70;6.10;;;;;;;15.81;100.00;101974.25;5013026;28;20463;-52
2022/08/29 05:23:55;;;;;;;6.97;6.37;;;;;;;15.90;100.00;101975.72;5012870;28;20429;-53
2022/08/29 05:26:22;;;;;;;7.10;6.50;;;;;;;15.91;100.00;101973.88;5012420;28;20556;-54
2022/08/29 05:28:51;;;;;;;6.93;6.53;;;;;;;15.94;100.00;101985.06;5012681;28;20477;-50
2022/08/29 05:31:20;;;;;;;7.83;6.27;;;;;;;16.01;100.00;101982.38;5012709;28;20465;-54
2022/08/29 05:33:49;;;;;;;7.07;6.30;;;;;;;15.95;100.00;101985.88;5012552;28;20440;-56
2022/08/29 05:36:16;;;;;;;7.60;6.80;;;;;;;15.96;100.00;101998.31;5012295;28;20457;-57
2022/08/29 05:38:45;;;;;;;7.63;6.90;;;;;;;16.02;100.00;101997.50;5012716;28;20429;-56
2022/08/29 05:41:12;;;;;;;6.20;5.90;;;;;;;16.03;100.00;102008.06;5012509;28;20820;-56
2022/08/29 05:43:40;;;;;;;7.07;6.37;;;;;;;16.00;100.00;102005.78;5012492;28;20444;-54
2022/08/29 05:46:10;;;;;;;6.37;5.90;;;;;;;16.01;100.00;102010.13;5011523;28;20472;-55
2022/08/29 05:48:40;;;;;;;7.03;6.43;;;;;;;16.03;100.00;102007.25;5012478;28;20433;-57
2022/08/29 05:51:15;;;;;;;6.80;6.20;;;;;;;16.04;100.00;102008.88;5012270;28;20457;-53
2022/08/29 05:53:42;;;;;;;5.77;5.47;;;;;;;16.05;100.00;102014.06;4993543;28;20794;-54
2022/08/29 05:56:10;;;;;;;6.50;6.00;;;;;;;16.05;100.00;102015.94;4992347;28;20479;-54
2022/08/29 05:58:38;;;;;;;6.87;6.40;;;;;;;16.07;100.00;102018.44;4992866;28;20434;-54
2022/08/29 06:01:05;;;;;;;6.00;5.50;;;;;;;16.09;100.00;102027.13;4992640;28;20469;-53
2022/08/29 06:03:34;;;;;;;6.50;6.10;;;;;;;16.07;100.00;102015.75;4992397;28;20441;-53
2022/08/29 06:06:02;;;;;;;6.30;5.80;;;;;;;16.08;100.00;102018.22;4992125;28;20560;-53
2022/08/29 06:08:30;;;;;;;6.47;6.10;;;;;;;16.05;100.00;102016.78;4992536;28;20433;-49
2022/08/29 06:10:57;;;;;;;6.00;5.50;;;;;;;16.03;100.00;102015.31;4992608;28;20482;-53
2022/08/29 06:13:25;;;;;;;5.90;5.60;;;;;;;16.09;100.00;102016.38;4992334;28;20434;-50
2022/08/29 06:15:53;;;;;;;5.43;5.13;;;;;;;16.12;100.00;102021.34;4991969;28;20485;-54
2022/08/29 06:18:20;;;;;;;6.07;5.77;;;;;;;16.09;100.00;102019.06;4992368;28;20463;-53
2022/08/29 06:21:05;;;;;;;7.13;6.60;;;;;;;16.04;100.00;102023.16;4992385;28;20465;-55
2022/08/29 06:23:33;;;;;;;5.60;5.30;;;;;;;16.08;100.00;102025.47;4992373;28;20796;-49
2022/08/29 06:26:00;;;;;;;5.53;5.10;;;;;;;16.09;100.00;102027.97;4991941;28;20470;-54
2022/08/29 06:28:29;;;;;;;5.17;4.97;;;;;;;16.10;100.00;102026.09;4992369;28;20437;-52
2022/08/29 06:31:04;;;;;;;5.10;4.80;;;;;;;16.13;100.00;102028.41;4992025;28;20850;-49
2022/08/29 06:33:32;;;;;;;5.87;5.57;;;;;;;16.16;100.00;102019.91;4992042;28;20528;-50
2022/08/29 06:35:59;;;;;;;4.93;4.60;;;;;;;16.17;100.00;102026.94;4991748;28;20990;-53
2022/08/29 06:38:28;;;;;;;5.00;4.80;;;;;;;16.23;100.00;102031.53;4992325;28;20460;-49
2022/08/29 06:40:56;;;;;;;6.20;5.80;;;;;;;16.32;100.00;102036.53;4992185;28;20445;-55
2022/08/29 06:43:23;;;;;;;5.63;5.33;;;;;;;16.37;100.00;102035.91;4991857;28;20935;-56
2022/08/29 06:45:51;;;;;;;5.77;5.53;;;;;;;16.41;100.00;102038.00;4991535;28;20496;-55
2022/08/29 06:48:19;;;;;;;5.30;5.00;;;;;;;16.46;100.00;102040.06;4992334;28;20444;-53
2022/08/29 06:50:46;;;;;;;5.00;4.80;;;;;;;16.51;100.00;102037.59;4992156;28;20489;-54
2022/08/29 06:53:14;;;;;;;5.67;5.37;;;;;;;16.54;100.00;102040.75;5000368;28;20446;-56
2022/08/29 06:56:04;;;;;;;5.40;5.20;;;;;;;16.58;100.00;102042.00;5012676;28;20551;-55
2022/08/29 06:58:32;;;;;;;4.93;4.73;;;;;;;16.58;100.00;102049.25;5015661;28;20428;-56
2022/08/29 07:01:05;;;;;;;5.50;5.13;;;;;;;16.61;100.00;102045.34;5015859;28;20457;-52
2022/08/29 07:03:33;;;;;;;5.67;5.40;;;;;;;16.66;100.00;102050.94;5015474;28;20425;-56
2022/08/29 07:06:02;;;;;;;5.33;5.00;;;;;;;16.80;100.00;102055.28;5015110;28;20487;-54
2022/08/29 07:08:30;;;;;;;6.50;5.97;;;;;;;16.85;100.00;102047.41;5015535;28;20434;-55
2022/08/29 07:10:57;;;;;;;5.20;4.97;;;;;;;16.92;100.00;102053.66;5015506;28;20480;-55
2022/08/29 07:13:27;;;;;;;5.10;4.80;;;;;;;16.93;100.00;102047.22;5015133;28;20428;-54
2022/08/29 07:15:54;;;;;;;5.37;5.10;;;;;;;16.96;100.00;102061.13;5014759;28;20464;-56
2022/08/29 07:18:22;;;;;;;4.80;4.70;;;;;;;17.01;100.00;102047.84;5015374;28;20523;-56
2022/08/29 07:20:50;;;;;;;5.40;5.20;;;;;;;17.07;100.00;102046.19;5015253;28;20449;-55
2022/08/29 07:23:18;;;;;;;5.23;5.00;;;;;;;17.20;100.00;102056.97;5014906;28;20440;-55
2022/08/29 07:25:45;;;;;;;4.77;4.57;;;;;;;17.25;100.00;102054.47;5014852;28;20465;-55
2022/08/29 07:28:13;;;;;;;4.80;4.60;;;;;;;17.25;100.00;102051.78;5015310;28;20439;-55
2022/08/29 07:30:43;;;;;;;5.20;4.87;;;;;;;17.40;100.00;102052.38;5014832;28;20472;-55
2022/08/29 07:33:10;;;;;;;5.90;5.60;;;;;;;17.50;100.00;102063.56;5014969;28;20479;-55
2022/08/29 07:35:38;;;;;;;5.17;4.87;;;;;;;17.64;100.00;102062.53;5014467;28;20472;-56
2022/08/29 07:38:06;;;;;;;5.37;5.07;;;;;;;17.77;100.00;102056.25;5014896;28;20443;-53
2022/08/29 07:40:34;;;;;;;4.77;4.50;;;;;;;17.83;100.00;102062.72;5014977;28;20535;-55
2022/08/29 07:43:02;;;;;;;4.63;4.50;;;;;;;18.01;100.00;102065.56;5014560;28;20938;-56
2022/08/29 07:45:30;;;;;;;4.57;4.40;;;;;;;18.19;100.00;102063.78;5014193;28;20456;-56
2022/08/29 07:47:59;;;;;;;4.80;4.50;;;;;;;18.38;100.00;102066.59;5014863;28;20432;-56
2022/08/29 07:50:26;;;;;;;4.97;4.77;;;;;;;18.49;100.00;102072.19;5014423;28;20476;-56
2022/08/29 07:52:55;;;;;;;4.37;4.27;;;;;;;18.65;100.00;102068.16;5007972;28;20445;-54
2022/08/29 07:55:23;;;;;;;4.90;4.60;;;;;;;18.81;98.05;102069.50;5012638;28;20837;-55
2022/08/29 07:57:51;;;;;;;5.13;4.63;;;;;;;19.01;98.51;102070.19;5014715;28;20451;-54
2022/08/29 08:00:19;;;;;;;4.67;4.33;;;;;;;19.05;95.75;102064.13;5014781;28;20802;-55
2022/08/29 08:02:47;;;;;;;5.77;5.27;;;;;;;19.32;94.40;102070.94;5014201;28;20455;-56
2022/08/29 08:05:16;;;;;;;4.90;4.60;;;;;;;19.42;94.76;102061.53;5014159;28;20464;-56
2022/08/29 08:07:45;;;;;;;5.20;4.80;;;;;;;19.21;93.63;102063.56;5013969;28;20783;-56
2022/08/29 08:10:15;;;;;;;3.93;3.63;;;;;;;19.07;94.94;102069.31;5014474;28;20472;-55
2022/08/29 08:12:43;;;;;;;4.83;4.53;;;;;;;19.19;96.97;102073.78;5013982;28;20453;-50
2022/08/29 08:15:11;;;;;;;4.30;4.10;;;;;;;19.15;94.02;102069.00;5013934;28;20467;-56
2022/08/29 08:17:39;;;;;;;4.90;4.60;;;;;;;19.03;93.54;102073.47;5014132;28;20448;-55
2022/08/29 08:20:11;;;;;;;3.80;3.70;;;;;;;18.90;95.60;102079.84;5014477;28;20439;-53
2022/08/29 08:22:40;;;;;;;4.60;4.40;;;;;;;19.05;95.67;102079.53;5013981;28;20903;-55
2022/08/29 08:25:09;;;;;;;4.93;4.73;;;;;;;18.96;92.68;102076.25;5013647;28;20464;-52
2022/08/29 08:27:36;;;;;;;4.93;4.53;;;;;;;18.83;94.82;102086.31;5014019;28;20806;-56
2022/08/29 08:30:11;;;;;;;4.63;4.33;;;;;;;18.71;96.30;102084.31;5013835;28;20440;-54
2022/08/29 08:32:39;;;;;;;4.80;4.57;;;;;;;18.74;97.09;102078.47;5013529;28;21027;-55
2022/08/29 08:35:14;;;;;;;5.10;4.70;;;;;;;18.72;96.94;102090.56;5013645;28;20461;-56
2022/08/29 08:37:44;;;;;;;5.10;4.87;;;;;;;18.83;95.86;102092.56;5013876;28;20821;-55
2022/08/29 08:40:19;;;;;;;5.03;4.83;;;;;;;18.75;94.79;102088.25;5013887;28;20437;-56
2022/08/29 08:42:49;;;;;;;4.97;4.57;;;;;;;18.85;96.09;102093.16;5013775;28;20548;-54
2022/08/29 08:45:19;;;;;;;5.27;4.90;;;;;;;18.94;94.93;102094.56;5038538;22;20830;-42
2022/08/29 08:47:50;;;;;;;5.03;4.70;;;;;;;19.16;94.91;102082.34;5013400;28;20449;-41
2022/08/29 08:50:24;;;;;;;4.53;4.10;;;;;;;19.13;92.64;102090.88;5013474;28;20440;-40
2022/08/29 08:52:58;;;;;;;4.83;4.50;;;;;;;19.15;92.38;102091.47;5019126;28;20427;-42
2022/08/29 08:55:33;;;;;;;4.53;4.10;;;;;;;19.09;87.82;102095.06;5014251;28;20985;-40
2022/08/29 08:58:10;;;;;;;5.30;5.00;;;;;;;19.17;86.41;102094.81;5013739;28;20439;-40
2022/08/29 09:00:43;;;;;;;4.97;4.70;;;;;;;19.32;84.03;102080.97;5013591;28;20440;-42
2022/08/29 09:03:24;;;;;;;4.63;4.43;;;;;;;19.32;83.33;102100.69;5013286;28;20798;-42
2022/08/29 09:06:07;;;;;;;4.30;4.07;;;;;;;19.24;81.24;102103.69;5012876;28;21043;-40
2022/08/29 09:08:46;;;;;;;4.53;4.20;;;;;;;19.20;84.79;102099.75;5013377;28;20425;-41
2022/08/29 09:11:25;;;;;;;4.93;4.53;;;;;;;19.10;85.74;102096.72;5013337;28;20482;-41
2022/08/29 09:14:03;;;;;;;4.30;4.13;;;;;;;19.13;84.06;102103.56;5013036;28;20436;-40
2022/08/29 09:16:36;;;;;;;4.70;4.40;;;;;;;19.22;82.71;102110.38;5012729;28;20472;-40
2022/08/29 09:19:07;;;;;;;4.70;4.40;;;;;;;19.40;83.98;102112.31;5012466;28;20475;-40
2022/08/29 09:21:41;;;;;;;4.90;4.60;;;;;;;19.38;80.83;102111.69;5013185;28;20436;-40
2022/08/29 09:24:17;;;;;;;5.53;4.57;;;;;;;19.38;82.93;102117.94;5013316;28;20451;-40
2022/08/29 09:26:45;;;;;;;4.37;4.17;;;;;;;19.33;82.78;102120.47;5012845;28;20451;-40
2022/08/29 09:29:13;;;;;;;5.50;5.03;;;;;;;19.49;82.44;102108.28;5013029;28;20440;-41
2022/08/29 09:31:41;;;;;;;4.33;4.03;;;;;;;19.42;80.90;102113.75;5012858;28;21013;-40
2022/08/29 09:34:14;;;;;;;4.40;4.17;;;;;;;19.48;79.15;102117.44;5012721;28;20467;-40
2022/08/29 09:36:44;;;;;;;4.87;4.20;;;;;;;19.45;80.54;102115.19;5012371;28;20957;-41
2022/08/29 09:39:24;;;;;;;5.40;5.00;;;;;;;19.54;79.68;102116.56;5013043;28;20433;-41
2022/08/29 09:42:16;;;;;;;5.15;4.85;;;;;;;19.60;78.63;102115.66;5088168;28;20895;-42
2022/08/29 09:44:53;;;;;;;4.53;4.23;;;;;;;19.61;78.21;102109.22;5064588;28;20224;-41
2022/08/29 09:47:23;;;;;;;4.43;4.20;;;;;;;19.40;77.07;102118.56;5049085;28;20466;-41
2022/08/29 09:50:11;;;;;;;4.30;4.00;;;;;;;19.34;79.68;102131.06;5049171;28;20443;-40
2022/08/29 09:52:50;;;;;;;4.63;4.43;;;;;;;19.29;78.25;102130.88;5069257;28;20422;-40
2022/08/29 09:55:27;;;;;;;5.10;4.70;;;;;;;19.28;80.35;102131.13;5085953;28;20814;-40
2022/08/29 09:58:01;;;;;;;5.40;4.13;;;;;;;19.29;81.28;102140.91;5089138;28;20883;-41
2022/08/29 10:00:33;;;;;;;4.37;4.00;;;;;;;19.39;81.19;102130.44;5089213;28;20464;-41
2022/08/29 10:03:04;;;;;;;4.63;4.37;;;;;;;19.34;78.05;102141.91;5088786;28;20433;-41
2022/08/29 10:05:40;;;;;;;4.20;4.00;;;;;;;19.42;78.37;102129.16;5088591;28;20465;-42
2022/08/29 10:08:24;;;;;;;3.83;3.70;;;;;;;19.42;78.55;102134.56;5089053;28;20413;-44
2022/08/29 10:10:54;;;;;;;4.47;4.30;;;;;;;19.40;78.19;102137.50;5089010;28;20429;-41
2022/08/29 10:13:32;;;;;;;4.33;4.13;;;;;;;19.41;76.39;102135.63;5088597;28;20436;-41
2022/08/29 10:16:08;;;;;;;4.57;4.27;;;;;;;19.49;78.10;102148.88;5088269;28;20823;-40
2022/08/29 10:18:44;;;;;;;4.60;3.97;;;;;;;19.44;76.59;102143.31;5088686;28;20424;-41
2022/08/29 10:21:26;;;;;;;3.93;3.73;;;;;;;19.37;79.35;102143.31;5088690;28;20481;-41
2022/08/29 10:24:07;;;;;;;4.43;3.93;;;;;;;19.41;75.20;102171.63;5088578;28;20789;-41
2022/08/29 10:26:45;;;;;;;5.00;4.60;;;;;;;19.46;76.72;102152.84;5087809;28;20471;-41
2022/08/29 10:29:25;;;;;;;4.07;3.87;;;;;;;19.61;76.73;102149.81;5088756;28;20760;-40
2022/08/29 10:32:06;;;;;;;4.83;4.57;;;;;;;19.74;74.84;102164.03;5088481;28;20425;-45
2022/08/29 10:34:48;;;;;;;4.60;4.40;;;;;;;19.73;74.66;102164.28;5087732;28;20425;-41
2022/08/29 10:37:28;;;;;;;4.90;4.60;;;;;;;19.57;75.12;102167.53;5088164;28;20441;-42
2022/08/29 10:40:03;;;;;;;4.40;4.20;;;;;;;19.48;75.58;102161.56;5088400;28;20437;-42
2022/08/29 10:42:35;;;;;;;4.53;4.20;;;;;;;19.60;75.43;102158.97;5088378;28;20517;-44
2022/08/29 10:45:13;;;;;;;5.37;5.07;;;;;;;19.66;74.46;102166.19;5087684;28;21021;-41
2022/08/29 10:47:50;;;;;;;4.90;4.53;;;;;;;19.68;74.58;102150.59;5088401;28;20435;-44
2022/08/29 10:50:32;;;;;;;4.97;4.77;;;;;;;19.64;73.36;102158.31;5088302;28;20424;-40
2022/08/29 10:53:17;;;;;;;4.83;4.40;;;;;;;19.84;74.30;102150.00;5066978;28;20431;-40
2022/08/29 10:55:50;;;;;;;4.73;4.43;;;;;;;19.89;73.70;102155.59;5074303;28;20549;-41
2022/08/29 10:58:38;;;;;;;4.20;4.00;;;;;;;19.96;72.63;102150.09;5074636;28;20430;-42
2022/08/29 11:01:14;;;;;;;6.00;5.27;;;;;;;19.96;72.83;102159.03;5074586;28;20838;-40
2022/08/29 11:03:47;;;;;;;5.43;5.07;;;;;;;19.98;71.17;102150.72;5074306;28;20438;-40
2022/08/29 11:06:19;;;;;;;5.47;4.97;;;;;;;19.89;72.99;102161.81;5074074;28;20544;-41
2022/08/29 11:08:55;;;;;;;6.57;5.60;;;;;;;19.69;73.39;102168.47;5074603;28;20425;-41
2022/08/29 11:11:25;;;;;;;6.07;4.87;;;;;;;19.52;74.59;102165.50;5074442;28;20434;-42
2022/08/29 11:13:58;;;;;;;5.03;4.83;;;;;;;19.59;75.35;102177.06;5073884;28;20437;-41
2022/08/29 11:16:38;;;;;;;5.40;5.00;;;;;;;19.64;74.78;102162.91;5073427;28;20481;-42
2022/08/29 11:19:12;;;;;;;5.60;5.30;;;;;;;19.68;74.78;102169.53;5074143;28;20437;-40
2022/08/29 11:21:47;;;;;;;5.67;5.20;;;;;;;19.83;72.82;102162.69;5073966;28;20473;-41
2022/08/29 11:24:16;;;;;;;5.13;5.00;;;;;;;19.82;72.38;102174.59;5073794;28;20430;-40
2022/08/29 11:26:53;;;;;;;5.70;5.33;;;;;;;19.80;74.30;102175.88;5053666;28;20908;-43
2022/08/29 11:29:29;;;;;;;5.47;5.10;;;;;;;19.80;72.45;102178.59;5054021;28;20437;-45
2022/08/29 11:32:06;;;;;;;5.53;5.20;;;;;;;19.78;71.95;102177.97;5053850;28;20423;-44
2022/08/29 11:35:00;;;;;;;5.00;4.53;;;;;;;19.76;71.97;102171.94;5053431;28;20465;-44